Time;durP1;ratioP1;P1;durP2;ratioP2;P2;SDS_P1;SDS_P2;PMS_P1;PMS_P2;Temp;Humidity;BMP_temperature;BMP_pressure;BME280_temperature;BME280_humidity;BME280_pressure;Samples;Min_cycle;Max_cycle;Signal;HPM_P1;HPM_P2
2023/05/23 00:00:05;;;;;;;7.97;6.97;;;;;15.40;96612.00;;;;5043054;28;20205;-74
2023/05/23 00:02:54;;;;;;;7.43;6.73;;;;;15.70;96611.00;;;;5044537;28;20203;-70
2023/05/23 00:05:46;;;;;;;9.50;7.80;;;;;15.70;96610.00;;;;5044157;28;20378;-71
2023/05/23 00:08:35;;;;;;;8.23;7.33;;;;;16.30;96610.00;;;;5042057;28;20212;-71
2023/05/23 00:11:27;;;;;;;10.30;8.23;;;;;16.40;96611.00;;;;5043202;28;20208;-71
2023/05/23 00:14:17;;;;;;;11.33;7.43;;;;;16.30;96611.00;;;;5040022;28;20689;-72
2023/05/23 00:17:06;;;;;;;8.47;6.97;;;;;15.90;96604.00;;;;5043615;28;20224;-72
2023/05/23 00:19:55;;;;;;;11.50;7.37;;;;;16.00;96596.00;;;;5040944;28;20206;-72
2023/05/23 00:22:47;;;;;;;8.37;7.17;;;;;16.40;96606.00;;;;5041687;28;20459;-72
2023/05/23 00:25:36;;;;;;;8.97;7.10;;;;;16.10;96606.00;;;;5046297;28;20203;-72
2023/05/23 00:28:27;;;;;;;10.23;7.63;;;;;16.20;96612.00;;;;5039151;28;20257;-72
2023/05/23 00:31:16;;;;;;;9.50;7.13;;;;;16.40;96598.00;;;;5039871;28;20204;-72
2023/05/23 00:34:05;;;;;;;10.47;7.37;;;;;16.50;96595.00;;;;5044231;28;20201;-72
2023/05/23 00:36:54;;;;;;;8.57;7.70;;;;;16.40;96602.00;;;;5042645;28;20228;-72
2023/05/23 00:39:43;;;;;;;10.37;6.83;;;;;16.30;96601.00;;;;5035786;28;20209;-72
2023/05/23 00:42:32;;;;;;;9.73;6.80;;;;;15.80;96591.00;;;;5042874;28;20213;-72
2023/05/23 00:45:23;;;;;;;7.43;6.23;;;;;15.00;96595.00;;;;5040875;28;20197;-74
2023/05/23 00:48:12;;;;;;;8.33;7.20;;;;;15.20;96592.00;;;;5041888;28;20584;-72
2023/05/23 00:51:01;;;;;;;11.23;7.53;;;;;15.40;96605.00;;;;5045237;28;20201;-72
2023/05/23 00:53:50;;;;;;;9.40;7.80;;;;;15.60;96595.00;;;;5039520;28;20209;-72
2023/05/23 00:56:40;;;;;;;9.83;7.77;;;;;15.50;96600.00;;;;5047963;28;20711;-72
2023/05/23 00:59:29;;;;;;;11.03;6.97;;;;;15.50;96599.00;;;;5042597;28;20200;-72
2023/05/23 01:02:20;;;;;;;8.03;6.73;;;;;15.30;96597.00;;;;5042525;28;20208;-72
2023/05/23 01:05:10;;;;;;;8.20;7.10;;;;;15.60;96594.00;;;;5044268;28;20740;-72
2023/05/23 01:08:02;;;;;;;9.67;8.37;;;;;15.50;96587.00;;;;5044975;28;20225;-72
2023/05/23 01:10:51;;;;;;;10.40;7.73;;;;;15.30;96591.00;;;;5040143;28;20219;-72
2023/05/23 01:13:43;;;;;;;9.13;7.23;;;;;14.80;96583.00;;;;5036505;28;20205;-74
2023/05/23 01:16:38;;;;;;;9.00;8.10;;;;;14.90;96582.00;;;;5040976;28;20236;-72
2023/05/23 01:19:46;;;;;;;8.43;7.53;;;;;15.30;96586.00;;;;5042601;28;20576;-71
2023/05/23 01:23:06;;;;;;;8.73;7.87;;;;;15.70;96580.00;;;;5037354;28;20235;-72
2023/05/23 01:26:08;;;;;;;9.17;7.53;;;;;15.70;96583.00;;;;5013733;28;20276;-71
2023/05/23 01:29:04;;;;;;;10.97;8.10;;;;;15.00;96575.00;;;;5044057;28;20196;-74
2023/05/23 01:31:55;;;;;;;8.90;7.57;;;;;14.60;96574.00;;;;5046448;28;20214;-72
2023/05/23 01:34:44;;;;;;;10.17;7.43;;;;;15.20;96571.00;;;;5033147;28;20205;-73
2023/05/23 01:37:33;;;;;;;8.77;7.50;;;;;15.40;96580.00;;;;5043038;28;20232;-73
2023/05/23 01:40:23;;;;;;;9.77;8.63;;;;;15.50;96579.00;;;;5038732;28;20201;-73
2023/05/23 01:43:12;;;;;;;9.47;7.80;;;;;15.20;96568.00;;;;5035856;28;20205;-74
2023/05/23 01:46:04;;;;;;;8.13;6.83;;;;;15.10;96578.00;;;;5039221;28;20212;-73
2023/05/23 01:48:54;;;;;;;10.00;7.80;;;;;15.20;96561.00;;;;5033581;28;21023;-73
2023/05/23 01:51:43;;;;;;;8.13;7.33;;;;;15.10;96562.00;;;;5046662;28;20204;-73
2023/05/23 01:54:34;;;;;;;11.90;7.93;;;;;14.90;96559.00;;;;5045514;28;20205;-73
2023/05/23 01:57:23;;;;;;;12.87;8.03;;;;;14.60;96561.00;;;;5039713;28;20220;-72
2023/05/23 02:00:14;;;;;;;11.37;8.00;;;;;14.40;96565.00;;;;5030196;28;20684;-73
2023/05/23 02:03:05;;;;;;;8.67;7.53;;;;;14.70;96564.00;;;;5044459;28;20667;-73
2023/05/23 02:05:54;;;;;;;11.80;7.00;;;;;14.80;96560.00;;;;5043276;28;20201;-73
2023/05/23 02:08:43;;;;;;;12.25;8.88;;;;;14.30;96564.00;;;;5039835;28;20501;-73
2023/05/23 02:11:32;;;;;;;9.40;8.00;;;;;14.70;96562.00;;;;5044606;28;20216;-73
2023/05/23 02:14:22;;;;;;;7.93;6.47;;;;;14.00;96555.00;;;;5043979;28;20212;-73
2023/05/23 02:17:13;;;;;;;12.10;8.57;;;;;14.40;96558.00;;;;5037678;28;20696;-73
2023/05/23 02:20:05;;;;;;;14.17;7.63;;;;;14.50;96557.00;;;;5042115;28;20214;-73
2023/05/23 02:22:54;;;;;;;8.60;7.37;;;;;14.30;96541.00;;;;5042979;28;20217;-73
2023/05/23 02:25:43;;;;;;;9.20;7.87;;;;;14.60;96550.00;;;;5046422;28;20668;-73
2023/05/23 02:28:32;;;;;;;10.93;7.37;;;;;14.60;96541.00;;;;5044865;28;20193;-73
2023/05/23 02:31:21;;;;;;;10.80;8.87;;;;;14.40;96539.00;;;;5045783;28;20207;-73
2023/05/23 02:34:10;;;;;;;10.47;7.13;;;;;14.10;96537.00;;;;5034136;28;20216;-74
2023/05/23 02:37:00;;;;;;;8.57;7.37;;;;;13.60;96526.00;;;;5032780;28;20233;-74
2023/05/23 02:39:49;;;;;;;13.33;7.47;;;;;13.60;96526.00;;;;5030313;28;20204;-73
2023/05/23 02:42:38;;;;;;;8.00;7.20;;;;;13.00;96534.00;;;;5043182;28;20209;-74
2023/05/23 02:45:27;;;;;;;12.00;8.15;;;;;13.30;96529.00;;;;5042394;28;20200;-74
2023/05/23 02:48:17;;;;;;;13.10;8.33;;;;;13.50;96526.00;;;;5032747;28;20370;-72
2023/05/23 02:51:06;;;;;;;9.43;7.93;;;;;13.30;96519.00;;;;5040486;28;20213;-73
2023/05/23 02:53:57;;;;;;;11.43;8.60;;;;;13.70;96523.00;;;;5046342;28;20683;-71
2023/05/23 02:56:46;;;;;;;8.90;7.87;;;;;13.50;96521.00;;;;5047985;28;20633;-71
2023/05/23 02:59:35;;;;;;;10.27;8.57;;;;;13.60;96510.00;;;;5047579;28;20197;-74
2023/05/23 03:02:24;;;;;;;12.30;8.43;;;;;13.90;96526.00;;;;5044639;28;20197;-74
2023/05/23 03:05:13;;;;;;;11.07;9.43;;;;;14.00;96519.00;;;;5041405;28;20211;-73
2023/05/23 03:08:02;;;;;;;12.33;9.00;;;;;13.90;96519.00;;;;5046605;28;20220;-73
2023/05/23 03:10:53;;;;;;;13.23;9.43;;;;;13.80;96518.00;;;;5042856;28;20621;-74
2023/05/23 03:13:42;;;;;;;10.90;8.40;;;;;13.70;96522.00;;;;5042599;28;20193;-73
2023/05/23 03:16:31;;;;;;;9.03;7.87;;;;;13.50;96514.00;;;;5044710;28;20228;-73
2023/05/23 03:19:19;;;;;;;8.83;7.83;;;;;13.50;96507.00;;;;5044464;28;20204;-72
2023/05/23 03:22:09;;;;;;;11.93;7.97;;;;;13.30;96512.00;;;;5044322;28;20204;-74
2023/05/23 03:24:58;;;;;;;9.13;8.10;;;;;13.60;96513.00;;;;5044659;28;20207;-74
2023/05/23 03:27:48;;;;;;;11.20;7.73;;;;;13.40;96505.00;;;;5035840;28;20237;-70
2023/05/23 03:30:37;;;;;;;13.80;8.50;;;;;13.20;96508.00;;;;5042759;28;20193;-74
2023/05/23 03:33:26;;;;;;;11.07;8.50;;;;;13.00;96503.00;;;;5042773;28;20202;-69
2023/05/23 03:36:15;;;;;;;11.17;9.07;;;;;13.60;96505.00;;;;5041804;28;20213;-71
2023/05/23 03:39:04;;;;;;;9.77;8.37;;;;;13.70;96509.00;;;;5042823;28;20216;-71
2023/05/23 03:41:53;;;;;;;11.70;8.13;;;;;13.30;96510.00;;;;5046069;28;20203;-71
2023/05/23 03:44:44;;;;;;;10.80;8.70;;;;;13.20;96507.00;;;;5026413;28;20209;-70
2023/05/23 03:47:33;;;;;;;12.53;8.87;;;;;13.50;96516.00;;;;5024615;28;20720;-71
2023/05/23 03:50:22;;;;;;;11.07;8.80;;;;;13.30;96509.00;;;;5028465;28;20238;-74
2023/05/23 03:53:11;;;;;;;14.77;8.97;;;;;13.50;96517.00;;;;5039796;28;20200;-71
2023/05/23 03:56:00;;;;;;;11.10;9.77;;;;;13.70;96524.00;;;;5042980;28;20258;-74
2023/05/23 03:58:49;;;;;;;11.83;9.20;;;;;14.00;96514.00;;;;5042621;28;20228;-71
2023/05/23 04:01:40;;;;;;;19.53;9.97;;;;;14.30;96517.00;;;;5022802;28;20217;-71
2023/05/23 04:04:29;;;;;;;20.87;11.20;;;;;14.10;96512.00;;;;5043263;28;20193;-72
2023/05/23 04:07:18;;;;;;;12.57;9.23;;;;;13.90;96525.00;;;;5046172;28;20216;-75
2023/05/23 04:10:08;;;;;;;13.67;9.90;;;;;14.00;96514.00;;;;5041844;28;20217;-71
2023/05/23 04:12:57;;;;;;;9.73;8.33;;;;;13.90;96517.00;;;;5045116;28;20838;-73
2023/05/23 04:15:47;;;;;;;11.33;7.63;;;;;13.50;96527.00;;;;5038377;28;20695;-74
2023/05/23 04:18:38;;;;;;;15.67;8.97;;;;;13.60;96523.00;;;;5018882;28;20283;-75
2023/05/23 04:21:27;;;;;;;11.10;8.63;;;;;13.90;96523.00;;;;5016584;28;20677;-75
2023/05/23 04:24:17;;;;;;;9.47;8.23;;;;;14.30;96528.00;;;;5024873;28;20205;-76
2023/05/23 04:27:06;;;;;;;15.27;9.50;;;;;14.30;96523.00;;;;5042692;28;20224;-76
2023/05/23 04:29:57;;;;;;;11.90;9.00;;;;;14.20;96519.00;;;;5020591;28;20201;-71
2023/05/23 04:32:47;;;;;;;17.33;8.63;;;;;14.10;96523.00;;;;5029662;28;20213;-73
2023/05/23 04:35:39;;;;;;;13.30;9.93;;;;;14.70;96518.00;;;;5029240;28;20208;-72
2023/05/23 04:38:28;;;;;;;11.63;9.70;;;;;14.80;96510.00;;;;5043590;28;20216;-73
2023/05/23 04:41:22;;;;;;;12.00;9.27;;;;;14.70;96518.00;;;;5032841;28;20668;-71
2023/05/23 04:44:11;;;;;;;12.97;9.17;;;;;14.80;96511.00;;;;5021600;28;20228;-73
2023/05/23 04:47:01;;;;;;;11.00;8.33;;;;;14.80;96515.00;;;;5019110;28;20245;-75
2023/05/23 04:49:52;;;;;;;11.13;8.70;;;;;15.00;96518.00;;;;5016299;28;20663;-75
2023/05/23 04:52:43;;;;;;;11.47;9.00;;;;;14.90;96519.00;;;;5022085;28;20206;-74
2023/05/23 04:55:32;;;;;;;10.03;8.23;;;;;15.20;96511.00;;;;5023783;28;20201;-75
2023/05/23 04:58:21;;;;;;;9.30;7.63;;;;;15.00;96520.00;;;;5020779;28;20225;-76
2023/05/23 05:01:10;;;;;;;9.83;8.13;;;;;15.20;96518.00;;;;5027130;28;20724;-75
2023/05/23 05:04:00;;;;;;;12.90;8.97;;;;;15.50;96513.00;;;;5022419;28;20256;-76
2023/05/23 05:06:49;;;;;;;10.03;9.03;;;;;15.50;96515.00;;;;5027940;28;20218;-75
2023/05/23 05:09:39;;;;;;;9.97;8.77;;;;;15.60;96509.00;;;;5034194;28;20201;-76
2023/05/23 05:12:28;;;;;;;11.43;7.70;;;;;15.40;96504.00;;;;5024661;28;20574;-75
2023/05/23 05:15:18;;;;;;;11.10;9.13;;;;;15.90;96509.00;;;;5017910;28;20202;-71
2023/05/23 05:18:07;;;;;;;10.53;8.47;;;;;16.00;96504.00;;;;5025650;28;20256;-75
2023/05/23 05:20:57;;;;;;;23.20;9.13;;;;;16.00;96501.00;;;;5024061;28;20588;-70
2023/05/23 05:23:46;;;;;;;11.93;9.20;;;;;16.40;96506.00;;;;5017004;28;20205;-73
2023/05/23 05:26:36;;;;;;;14.47;9.73;;;;;16.10;96495.00;;;;5031886;28;20228;-75
2023/05/23 05:29:25;;;;;;;11.23;10.13;;;;;16.50;96498.00;;;;5015596;28;20217;-75
2023/05/23 05:32:15;;;;;;;10.57;8.30;;;;;16.90;96494.00;;;;5023813;28;20215;-71
2023/05/23 05:35:06;;;;;;;13.63;9.60;;;;;16.90;96490.00;;;;5029743;28;20213;-74
2023/05/23 05:37:55;;;;;;;14.90;10.30;;;;;17.00;96495.00;;;;5025058;28;20228;-76
2023/05/23 05:40:44;;;;;;;10.80;8.85;;;;;17.20;96492.00;;;;5036617;28;20913;-72
2023/05/23 05:43:34;;;;;;;15.27;9.53;;;;;17.30;96494.00;;;;5041924;28;20208;-72
2023/05/23 05:46:23;;;;;;;13.57;9.20;;;;;17.90;96501.00;;;;5043338;28;20220;-76
2023/05/23 05:49:12;;;;;;;13.60;8.97;;;;;18.70;96505.00;;;;5040676;28;20204;-75
2023/05/23 05:52:01;;;;;;;11.77;8.43;;;;;18.30;96488.00;;;;5044171;28;20215;-74
2023/05/23 05:54:51;;;;;;;12.00;9.40;;;;;18.60;96496.00;;;;5042698;28;20200;-75
2023/05/23 05:57:40;;;;;;;11.47;9.73;;;;;18.90;96488.00;;;;5041889;28;20220;-74
2023/05/23 06:00:30;;;;;;;17.70;9.73;;;;;19.00;96488.00;;;;5044102;28;20197;-75
2023/05/23 06:03:20;;;;;;;20.30;9.20;;;;;19.40;96491.00;;;;5044464;28;20212;-74
2023/05/23 06:06:09;;;;;;;15.37;8.93;;;;;19.60;96485.00;;;;5045260;28;20224;-74
2023/05/23 06:08:58;;;;;;;12.37;8.17;;;;;19.40;96480.00;;;;5045883;28;20199;-75
2023/05/23 06:11:47;;;;;;;18.23;9.30;;;;;19.80;96480.00;;;;5027078;28;20213;-75
2023/05/23 06:14:36;;;;;;;15.03;9.53;;;;;20.10;96492.00;;;;5033540;28;20208;-74
2023/05/23 06:17:26;;;;;;;17.13;8.17;;;;;20.80;96486.00;;;;5046143;28;20233;-74
2023/05/23 06:20:15;;;;;;;13.93;8.70;;;;;21.20;96488.00;;;;5046873;28;20217;-74
2023/05/23 06:23:05;;;;;;;11.43;8.27;;;;;21.20;96474.00;;;;5042233;28;20220;-74
2023/05/23 06:25:54;;;;;;;11.50;8.00;;;;;21.40;96490.00;;;;5046441;28;20197;-74
2023/05/23 06:28:43;;;;;;;11.27;7.70;;;;;21.10;96469.00;;;;5048127;28;20193;-73
2023/05/23 06:31:32;;;;;;;12.67;7.07;;;;;21.10;96471.00;;;;5045037;28;20271;-73
2023/05/23 06:34:22;;;;;;;11.93;7.47;;;;;21.60;96477.00;;;;5033690;28;20602;-73
2023/05/23 06:37:11;;;;;;;18.20;8.30;;;;;21.80;96487.00;;;;5043742;28;20220;-73
2023/05/23 06:40:00;;;;;;;10.87;7.70;;;;;22.40;96483.00;;;;5044619;28;20238;-73
2023/05/23 06:42:49;;;;;;;17.07;8.30;;;;;22.70;96484.00;;;;5042127;28;20197;-73
2023/05/23 06:45:38;;;;;;;9.93;7.37;;;;;23.00;96474.00;;;;5042225;28;20208;-73
2023/05/23 06:48:27;;;;;;;12.00;8.97;;;;;23.20;96474.00;;;;5043451;28;20204;-76
2023/05/23 06:51:18;;;;;;;15.77;7.47;;;;;23.10;96463.00;;;;5044199;28;20229;-74
2023/05/23 06:54:07;;;;;;;8.23;6.33;;;;;23.30;96473.00;;;;5047618;28;20577;-74
2023/05/23 06:56:56;;;;;;;9.40;7.27;;;;;23.50;96469.00;;;;5045366;28;20217;-76
2023/05/23 06:59:45;;;;;;;10.80;6.93;;;;;23.70;96467.00;;;;5045175;28;20231;-76
2023/05/23 07:02:34;;;;;;;7.53;5.87;;;;;24.00;96455.00;;;;5044474;28;20224;-76
2023/05/23 07:05:23;;;;;;;7.97;6.23;;;;;24.30;96462.00;;;;5045979;28;20197;-76
2023/05/23 07:08:13;;;;;;;8.77;6.70;;;;;24.40;96458.00;;;;5038554;28;20640;-75
2023/05/23 07:11:02;;;;;;;9.53;6.70;;;;;24.40;96459.00;;;;5047780;28;20587;-75
2023/05/23 07:13:51;;;;;;;8.30;6.27;;;;;24.70;96458.00;;;;5044879;28;20197;-76
2023/05/23 07:16:40;;;;;;;9.83;6.53;;;;;25.00;96459.00;;;;5043752;28;20221;-76
2023/05/23 07:19:30;;;;;;;9.57;6.60;;;;;25.00;96456.00;;;;5046875;28;20220;-74
2023/05/23 07:22:19;;;;;;;7.70;6.27;;;;;25.30;96457.00;;;;5037532;28;20294;-73
2023/05/23 07:25:10;;;;;;;10.20;6.40;;;;;25.40;96440.00;;;;5045963;28;20205;-73
2023/05/23 07:27:59;;;;;;;8.87;7.30;;;;;25.50;96441.00;;;;5036245;28;20237;-72
2023/05/23 07:30:48;;;;;;;11.47;6.03;;;;;25.40;96446.00;;;;5042653;28;20193;-73
2023/05/23 07:33:37;;;;;;;11.70;6.77;;;;;25.20;96443.00;;;;5034437;28;20206;-70
2023/05/23 07:36:26;;;;;;;9.20;5.90;;;;;25.40;96445.00;;;;5041082;28;20710;-72
2023/05/23 07:39:20;;;;;;;9.93;6.10;;;;;25.40;96444.00;;;;5036465;28;20222;-72
2023/05/23 07:42:11;;;;;;;9.07;6.03;;;;;25.30;96437.00;;;;5040840;28;20201;-72
2023/05/23 07:45:00;;;;;;;9.67;6.90;;;;;25.80;96434.00;;;;5046105;28;20668;-72
2023/05/23 07:47:49;;;;;;;10.23;7.13;;;;;25.90;96432.00;;;;5041802;28;20221;-70
2023/05/23 07:50:39;;;;;;;9.93;6.37;;;;;26.20;96432.00;;;;5039936;28;20194;-71
2023/05/23 07:53:28;;;;;;;11.30;5.97;;;;;26.60;96435.00;;;;5037825;28;20680;-71
2023/05/23 07:56:17;;;;;;;12.07;6.03;;;;;26.80;96430.00;;;;5039947;28;20232;-71
2023/05/23 07:59:08;;;;;;;8.47;6.37;;;;;26.90;96434.00;;;;5044833;28;20221;-71
2023/05/23 08:01:57;;;;;;;9.47;5.37;;;;;26.90;96438.00;;;;5042607;28;20197;-72
2023/05/23 08:04:48;;;;;;;9.17;6.10;;;;;27.10;96430.00;;;;5038855;28;20201;-73
2023/05/23 08:07:37;;;;;;;7.33;6.20;;;;;27.40;96429.00;;;;5038338;28;20224;-72
2023/05/23 08:10:27;;;;;;;9.30;6.33;;;;;27.40;96428.00;;;;5044565;28;20200;-75
2023/05/23 08:13:17;;;;;;;9.20;6.90;;;;;27.50;96424.00;;;;5041914;28;20206;-75
2023/05/23 08:16:07;;;;;;;6.80;5.30;;;;;27.80;96429.00;;;;5026739;28;20236;-74
2023/05/23 08:18:56;;;;;;;7.33;5.53;;;;;28.00;96426.00;;;;5028516;28;20201;-75
2023/05/23 08:21:46;;;;;;;11.37;6.50;;;;;27.80;96418.00;;;;5027576;28;20212;-76
2023/05/23 08:24:35;;;;;;;9.43;6.10;;;;;28.20;96425.00;;;;5022850;28;20214;-73
2023/05/23 08:27:24;;;;;;;10.27;5.40;;;;;28.40;96419.00;;;;5022845;28;20242;-74
2023/05/23 08:30:14;;;;;;;11.47;6.20;;;;;28.40;96418.00;;;;5022195;28;20195;-73
2023/05/23 08:33:05;;;;;;;6.53;5.10;;;;;28.60;96405.00;;;;5026795;28;20201;-73
2023/05/23 08:35:54;;;;;;;8.53;5.03;;;;;28.90;96416.00;;;;5026634;28;20195;-73
2023/05/23 08:38:44;;;;;;;6.60;5.50;;;;;28.70;96414.00;;;;5023457;28;20208;-74
2023/05/23 08:41:33;;;;;;;10.95;6.35;;;;;29.10;96411.00;;;;5024914;28;20246;-74
2023/05/23 08:44:22;;;;;;;6.77;5.13;;;;;29.40;96412.00;;;;5028954;28;20211;-74
2023/05/23 08:47:11;;;;;;;7.00;5.43;;;;;29.60;96408.00;;;;5021167;28;20223;-75
2023/05/23 08:50:02;;;;;;;9.43;5.43;;;;;29.40;96410.00;;;;5023045;28;20208;-75
2023/05/23 08:52:55;;;;;;;6.10;5.33;;;;;29.90;96410.00;;;;5027357;28;20200;-74
2023/05/23 08:55:45;;;;;;;6.70;5.97;;;;;30.20;96402.00;;;;5024860;28;20685;-72
2023/05/23 08:58:35;;;;;;;6.07;5.43;;;;;30.10;96400.00;;;;5024532;28;20195;-72
2023/05/23 09:01:25;;;;;;;7.40;5.30;;;;;30.40;96403.00;;;;5022548;28;20602;-71
2023/05/23 09:04:14;;;;;;;6.03;5.40;;;;;30.80;96393.00;;;;5023094;28;20593;-72
2023/05/23 09:07:05;;;;;;;9.87;6.30;;;;;31.00;96389.00;;;;5024652;28;20228;-72
2023/05/23 09:09:54;;;;;;;6.53;5.57;;;;;31.00;96389.00;;;;5023776;28;20208;-73
2023/05/23 09:12:43;;;;;;;6.80;5.70;;;;;31.30;96377.00;;;;5037278;28;20207;-72
2023/05/23 09:15:32;;;;;;;10.80;5.70;;;;;30.90;96377.00;;;;5042388;28;20208;-76
2023/05/23 09:18:22;;;;;;;6.93;5.57;;;;;31.10;96369.00;;;;5035927;28;20774;-76
2023/05/23 09:21:12;;;;;;;6.57;5.20;;;;;31.20;96366.00;;;;5034102;28;20925;-72
2023/05/23 09:24:03;;;;;;;6.80;6.10;;;;;31.10;96359.00;;;;5042545;28;20213;-77
2023/05/23 09:26:52;;;;;;;7.17;5.10;;;;;31.20;96358.00;;;;5032315;28;20230;-70
2023/05/23 09:29:41;;;;;;;7.03;5.53;;;;;31.50;96383.00;;;;5035588;28;20693;-71
2023/05/23 09:32:30;;;;;;;9.00;6.37;;;;;30.80;96344.00;;;;5030419;28;20197;-75
2023/05/23 09:35:23;;;;;;;6.40;5.43;;;;;31.60;96351.00;;;;5022236;28;20620;-71
2023/05/23 09:38:12;;;;;;;9.53;5.67;;;;;32.00;96340.00;;;;5033639;28;20202;-71
2023/05/23 09:41:03;;;;;;;6.90;6.13;;;;;32.30;96349.00;;;;5035461;28;20229;-73
2023/05/23 09:43:53;;;;;;;6.73;6.03;;;;;32.20;96346.00;;;;5040605;28;20575;-72
2023/05/23 09:46:42;;;;;;;6.33;5.67;;;;;33.00;96339.00;;;;5036028;28;20223;-72
2023/05/23 09:49:31;;;;;;;9.48;6.00;;;;;32.30;96336.00;;;;5030916;28;20208;-71
2023/05/23 09:52:20;;;;;;;7.10;6.30;;;;;33.10;96329.00;;;;5034295;28;20192;-72
2023/05/23 09:55:09;;;;;;;8.30;5.70;;;;;33.40;96342.00;;;;5027963;28;20410;-72
2023/05/23 09:58:00;;;;;;;8.63;5.95;;;;;32.50;96332.00;;;;5027972;28;20231;-71
2023/05/23 10:00:53;;;;;;;8.10;6.10;;;;;33.50;96329.00;;;;5024327;28;20227;-73
2023/05/23 10:03:50;;;;;;;6.45;4.70;;;;;34.10;96317.00;;;;5031543;28;20203;-74
2023/05/23 10:06:45;;;;;;;6.18;5.57;;;;;34.10;96316.00;;;;5041996;28;20231;-73
2023/05/23 10:09:37;;;;;;;5.90;5.05;;;;;34.30;96319.00;;;;5029690;28;20214;-73
2023/05/23 10:12:46;;;;;;;8.48;5.35;;;;;34.50;96308.00;;;;5017153;28;20215;-72
2023/05/23 10:15:39;;;;;;;5.80;5.22;;;;;34.30;96313.00;;;;5024285;28;20211;-71
2023/05/23 10:18:30;;;;;;;5.70;5.05;;;;;34.80;96305.00;;;;5030011;28;20705;-72
2023/05/23 10:21:24;;;;;;;8.98;6.03;;;;;35.00;96326.00;;;;5025914;28;20221;-72
2023/05/23 10:24:14;;;;;;;5.38;4.88;;;;;34.70;96299.00;;;;5034023;28;20205;-72
2023/05/23 10:27:03;;;;;;;6.72;5.40;;;;;34.50;96300.00;;;;5036738;28;20242;-72
2023/05/23 10:29:53;;;;;;;5.70;4.90;;;;;34.20;96338.00;;;;5023164;28;20199;-70
2023/05/23 10:32:43;;;;;;;6.80;5.10;;;;;32.70;96337.00;;;;5022218;28;20219;-72
2023/05/23 10:35:43;;;;;;;6.57;5.40;;;;;32.80;96333.00;;;;5030564;28;20208;-72
2023/05/23 10:38:38;;;;;;;6.18;4.85;;;;;32.40;96339.00;;;;5039546;28;20610;-71
2023/05/23 10:41:31;;;;;;;7.63;5.97;;;;;31.80;96336.00;;;;5031629;28;20831;-76
2023/05/23 10:44:25;;;;;;;6.00;5.40;;;;;31.60;96342.00;;;;5032262;28;20215;-75
2023/05/23 10:47:27;;;;;;;6.15;4.70;;;;;31.50;96337.00;;;;5029500;28;20230;-73
2023/05/23 10:50:32;;;;;;;6.68;5.25;;;;;31.30;96328.00;;;;5037978;28;20210;-73
2023/05/23 10:53:24;;;;;;;7.78;4.63;;;;;31.00;96325.00;;;;5039895;28;20199;-73
2023/05/23 10:56:24;;;;;;;7.37;5.63;;;;;30.60;96313.00;;;;5038009;28;20734;-75
2023/05/23 10:59:21;;;;;;;7.13;5.43;;;;;29.90;96315.00;;;;5031000;28;20212;-71
2023/05/23 11:02:14;;;;;;;7.37;4.83;;;;;29.90;96311.00;;;;5035701;28;20728;-71
2023/05/23 11:05:21;;;;;;;6.03;4.23;;;;;30.10;96315.00;;;;5042563;28;20711;-71
2023/05/23 11:08:12;;;;;;;5.30;4.80;;;;;30.30;96314.00;;;;5038341;28;20667;-71
2023/05/23 11:11:02;;;;;;;4.47;4.07;;;;;30.50;96318.00;;;;5031004;28;20220;-70
2023/05/23 11:13:56;;;;;;;5.33;4.80;;;;;30.60;96328.00;;;;5020168;28;20229;-70
2023/05/23 11:16:47;;;;;;;6.80;5.03;;;;;31.00;96315.00;;;;5021146;28;20321;-71
2023/05/23 11:19:36;;;;;;;7.83;5.00;;;;;30.90;96315.00;;;;5028902;28;20210;-70
2023/05/23 11:22:30;;;;;;;4.90;4.43;;;;;31.50;96264.00;;;;5033049;28;20224;-71
2023/05/23 11:25:19;;;;;;;8.93;5.17;;;;;31.30;96317.00;;;;5028828;28;20211;-72
2023/05/23 11:28:08;;;;;;;5.20;4.70;;;;;30.60;96324.00;;;;5035756;28;20714;-72
2023/05/23 11:30:58;;;;;;;4.87;4.43;;;;;30.60;96323.00;;;;5046022;28;20203;-72
2023/05/23 11:33:47;;;;;;;5.17;4.67;;;;;30.40;96354.00;;;;5045535;28;20675;-72
2023/05/23 11:36:36;;;;;;;5.93;4.03;;;;;28.20;96394.00;;;;5036545;28;20228;-74
2023/05/23 11:39:26;;;;;;;7.37;4.50;;;;;26.70;96399.00;;;;5038666;28;20580;-66
2023/05/23 11:42:15;;;;;;;8.40;5.03;;;;;24.70;96409.00;;;;5040390;28;20229;-66
2023/05/23 11:45:08;;;;;;;10.90;6.17;;;;;24.20;96423.00;;;;5044203;28;20207;-67
2023/05/23 11:47:57;;;;;;;13.53;5.43;;;;;23.70;96437.00;;;;5035576;28;20220;-66
2023/05/23 11:50:48;;;;;;;7.17;4.77;;;;;22.30;96445.00;;;;5040705;28;20233;-67
2023/05/23 11:53:37;;;;;;;8.23;6.63;;;;;22.10;96436.00;;;;5031440;28;20578;-67
2023/05/23 11:56:28;;;;;;;10.93;4.73;;;;;21.90;96471.00;;;;5041999;28;20233;-69
2023/05/23 11:59:17;;;;;;;13.13;5.23;;;;;21.90;96500.00;;;;5043117;28;20201;-71
2023/05/23 12:02:07;;;;;;;11.43;5.27;;;;;21.80;96521.00;;;;5039006;28;20217;-70
2023/05/23 12:04:56;;;;;;;16.80;6.60;;;;;20.90;96517.00;;;;5041849;28;20216;-69
2023/05/23 12:07:47;;;;;;;9.53;6.73;;;;;21.00;96532.00;;;;5034315;28;20643;-68
2023/05/23 12:10:36;;;;;;;6.50;5.17;;;;;20.40;96542.00;;;;5047571;28;20204;-70
2023/05/23 12:13:28;;;;;;;7.13;6.33;;;;;19.50;96551.00;;;;5041915;28;20193;-70
2023/05/23 12:16:17;;;;;;;9.37;6.77;;;;;19.90;96574.00;;;;5043333;28;20230;-70
2023/05/23 12:19:06;;;;;;;11.47;6.23;;;;;19.80;96592.00;;;;5042238;28;20197;-66
2023/05/23 12:21:55;;;;;;;12.60;6.03;;;;;20.20;96595.00;;;;5038776;28;20249;-69
2023/05/23 12:24:47;;;;;;;9.83;5.87;;;;;19.90;96585.00;;;;5044676;28;20204;-70
2023/05/23 12:27:37;;;;;;;11.43;7.03;;;;;20.00;96582.00;;;;5033300;28;20239;-71
2023/05/23 12:30:27;;;;;;;12.87;6.63;;;;;20.00;96581.00;;;;5033825;28;20205;-68
2023/05/23 12:33:19;;;;;;;11.07;6.37;;;;;19.60;96590.00;;;;5029710;28;20274;-72
2023/05/23 12:36:08;;;;;;;8.43;6.57;;;;;19.90;96587.00;;;;5028950;28;22179;-69
2023/05/23 12:39:03;;;;;;;11.53;7.10;;;;;18.90;96591.00;;;;5037394;28;20852;-67
2023/05/23 12:41:52;;;;;;;11.77;8.27;;;;;18.80;96598.00;;;;5041647;28;20232;-68
2023/05/23 12:44:42;;;;;;;10.27;7.70;;;;;19.00;96599.00;;;;5042554;28;20197;-68
2023/05/23 12:47:32;;;;;;;8.33;6.93;;;;;19.30;96588.00;;;;5043936;28;20598;-67
2023/05/23 12:50:21;;;;;;;8.83;7.87;;;;;19.50;96596.00;;;;5045713;28;20204;-67
2023/05/23 12:53:10;;;;;;;13.43;8.20;;;;;19.50;96590.00;;;;5044038;28;20193;-68
2023/05/23 12:55:59;;;;;;;11.33;7.80;;;;;19.60;96602.00;;;;5043846;28;20208;-67
2023/05/23 12:58:48;;;;;;;8.37;7.50;;;;;20.10;96599.00;;;;5042189;28;20232;-67
2023/05/23 13:01:37;;;;;;;9.50;8.60;;;;;20.20;96587.00;;;;5037166;28;20704;-67
2023/05/23 13:04:28;;;;;;;9.87;7.93;;;;;20.30;96584.00;;;;5040707;28;20200;-68
2023/05/23 13:07:18;;;;;;;9.83;8.77;;;;;19.70;96573.00;;;;5039333;28;20236;-70
2023/05/23 13:10:09;;;;;;;11.77;7.43;;;;;19.70;96572.00;;;;5022309;28;20220;-67
2023/05/23 13:12:58;;;;;;;12.60;8.53;;;;;20.30;96572.00;;;;5021804;28;20197;-67
2023/05/23 13:15:47;;;;;;;14.93;8.80;;;;;20.50;96565.00;;;;5027330;28;20224;-67
2023/05/23 13:18:37;;;;;;;12.23;7.93;;;;;20.00;96559.00;;;;5023785;28;20205;-68
2023/05/23 13:21:28;;;;;;;13.43;8.57;;;;;19.90;96560.00;;;;5025586;28;20219;-67
2023/05/23 13:24:17;;;;;;;9.07;7.87;;;;;19.80;96548.00;;;;5036043;28;20668;-68
2023/05/23 13:27:06;;;;;;;10.83;7.90;;;;;20.00;96550.00;;;;5022855;28;20720;-68
2023/05/23 13:29:55;;;;;;;8.97;7.93;;;;;20.20;96548.00;;;;5030887;28;20205;-67
2023/05/23 13:32:44;;;;;;;9.17;7.97;;;;;20.40;96548.00;;;;5022682;28;20206;-69
2023/05/23 13:35:33;;;;;;;11.17;7.70;;;;;20.60;96549.00;;;;5032555;28;20217;-69
2023/05/23 13:38:26;;;;;;;9.67;8.00;;;;;20.70;96541.00;;;;5035127;28;20218;-68
2023/05/23 13:41:15;;;;;;;9.13;7.57;;;;;20.60;96543.00;;;;5031406;28;20208;-68
2023/05/23 13:44:04;;;;;;;8.97;8.07;;;;;21.20;96538.00;;;;5032800;28;20204;-69
2023/05/23 13:46:53;;;;;;;8.73;6.87;;;;;21.10;96528.00;;;;5033963;28;20227;-69
2023/05/23 13:49:42;;;;;;;13.47;8.47;;;;;20.90;96520.00;;;;5034901;28;20201;-69
2023/05/23 13:52:31;;;;;;;12.57;9.30;;;;;21.70;96521.00;;;;5032749;28;20223;-69
2023/05/23 13:55:22;;;;;;;9.13;7.27;;;;;22.00;96519.00;;;;5034513;28;20696;-68
2023/05/23 13:58:11;;;;;;;11.80;7.80;;;;;22.20;96517.00;;;;5034803;28;20205;-68
2023/05/23 14:01:00;;;;;;;12.80;8.23;;;;;22.40;96523.00;;;;5026430;28;20205;-68
2023/05/23 14:03:49;;;;;;;9.53;7.33;;;;;22.60;96524.00;;;;5023935;28;20228;-68
2023/05/23 14:06:38;;;;;;;7.83;7.00;;;;;22.80;96534.00;;;;5028186;28;20217;-68